Port Royal, Pennsylvania
Current Conditions -  °F | °C
As of 4:53 PM on Monday 22 Dec 2014 (Local Time) from KUNV Reporting Station
Overcast Overcast  
Wind Chill: 26°   Ceiling: 7000
Heat Index: 32°   Visibility: 10mi
Dew Point: 23°   Wind: 6mph
Humidity: 69%   Direction: 90°E
Pressure: 30.13"   Gusts: NA
Location:  40.53°N, 77.39°W
Report Text: KUNV 222153Z 09005KT 10SM SCT029 BKN070 OVC085 00/M05 A3013
Loading
Personal Weather Stations






























Interactive Weather Map New forecast layout! Learn more

10-Day Weather Forecast

Advertisements
Track Severe Weather on mobile